sensor_id;sensor_type;location;lat;lon;timestamp;temperature;humidity
10802;DHT22;5453;50.852;7.102;2023-08-17T00:01:36;20.90;99.90
10802;DHT22;5453;50.852;7.102;2023-08-17T00:04:08;20.90;99.90
10802;DHT22;5453;50.852;7.102;2023-08-17T00:06:40;20.90;99.90
10802;DHT22;5453;50.852;7.102;2023-08-17T00:09:16;21.00;99.90
10802;DHT22;5453;50.852;7.102;2023-08-17T00:11:49;20.90;99.90
10802;DHT22;5453;50.852;7.102;2023-08-17T00:14:21;21.00;99.90
10802;DHT22;5453;50.852;7.102;2023-08-17T00:16:54;21.00;99.90
10802;DHT22;5453;50.852;7.102;2023-08-17T00:19:26;21.10;99.90
10802;DHT22;5453;50.852;7.102;2023-08-17T00:21:59;21.00;99.90
10802;DHT22;5453;50.852;7.102;2023-08-17T00:24:33;21.00;99.90
10802;DHT22;5453;50.852;7.102;2023-08-17T00:27:06;21.00;99.90
10802;DHT22;5453;50.852;7.102;2023-08-17T00:29:38;21.00;99.90
10802;DHT22;5453;50.852;7.102;2023-08-17T00:32:10;21.00;99.90
10802;DHT22;5453;50.852;7.102;2023-08-17T00:34:42;21.00;99.90
10802;DHT22;5453;50.852;7.102;2023-08-17T00:37:14;21.00;99.90
10802;DHT22;5453;50.852;7.102;2023-08-17T00:39:48;21.00;99.90
10802;DHT22;5453;50.852;7.102;2023-08-17T00:42:20;21.00;99.90
10802;DHT22;5453;50.852;7.102;2023-08-17T00:44:52;21.00;99.90
10802;DHT22;5453;50.852;7.102;2023-08-17T00:47:25;21.00;99.90
10802;DHT22;5453;50.852;7.102;2023-08-17T00:49:58;21.00;99.90
10802;DHT22;5453;50.852;7.102;2023-08-17T00:52:32;21.00;99.90
10802;DHT22;5453;50.852;7.102;2023-08-17T00:55:07;21.10;99.90
10802;DHT22;5453;50.852;7.102;2023-08-17T00:57:40;21.00;99.90
10802;DHT22;5453;50.852;7.102;2023-08-17T01:00:14;21.00;99.90
10802;DHT22;5453;50.852;7.102;2023-08-17T01:02:49;21.00;99.90
10802;DHT22;5453;50.852;7.102;2023-08-17T01:05:21;21.00;99.90
10802;DHT22;5453;50.852;7.102;2023-08-17T01:07:53;21.00;99.90
10802;DHT22;5453;50.852;7.102;2023-08-17T01:10:37;21.00;99.90
10802;DHT22;5453;50.852;7.102;2023-08-17T01:13:18;21.00;99.90
10802;DHT22;5453;50.852;7.102;2023-08-17T01:15:57;21.00;99.90
10802;DHT22;5453;50.852;7.102;2023-08-17T01:18:34;21.00;99.90
10802;DHT22;5453;50.852;7.102;2023-08-17T01:21:10;21.00;99.90
10802;DHT22;5453;50.852;7.102;2023-08-17T01:23:50;21.00;99.90
10802;DHT22;5453;50.852;7.102;2023-08-17T01:26:22;21.00;99.90
10802;DHT22;5453;50.852;7.102;2023-08-17T01:28:54;21.00;99.90
10802;DHT22;5453;50.852;7.102;2023-08-17T01:31:30;21.00;99.90
10802;DHT22;5453;50.852;7.102;2023-08-17T01:34:07;21.00;99.90
10802;DHT22;5453;50.852;7.102;2023-08-17T01:36:45;21.00;99.90
10802;DHT22;5453;50.852;7.102;2023-08-17T01:39:26;20.90;99.90
10802;DHT22;5453;50.852;7.102;2023-08-17T01:42:02;20.90;99.90
10802;DHT22;5453;50.852;7.102;2023-08-17T01:44:35;20.90;99.90
10802;DHT22;5453;50.852;7.102;2023-08-17T01:47:07;20.90;99.90
10802;DHT22;5453;50.852;7.102;2023-08-17T01:49:40;20.90;99.90
10802;DHT22;5453;50.852;7.102;2023-08-17T01:52:12;20.90;99.90
10802;DHT22;5453;50.852;7.102;2023-08-17T01:54:46;20.90;99.90
10802;DHT22;5453;50.852;7.102;2023-08-17T01:57:20;20.90;99.90
10802;DHT22;5453;50.852;7.102;2023-08-17T01:59:52;20.90;99.90
10802;DHT22;5453;50.852;7.102;2023-08-17T02:02:24;20.90;99.90
10802;DHT22;5453;50.852;7.102;2023-08-17T02:04:56;20.80;99.90
10802;DHT22;5453;50.852;7.102;2023-08-17T02:07:28;20.80;99.90
10802;DHT22;5453;50.852;7.102;2023-08-17T02:10:02;20.80;99.90
10802;DHT22;5453;50.852;7.102;2023-08-17T02:12:36;20.80;99.90
10802;DHT22;5453;50.852;7.102;2023-08-17T02:15:09;20.70;99.90
10802;DHT22;5453;50.852;7.102;2023-08-17T02:17:43;20.70;99.90
10802;DHT22;5453;50.852;7.102;2023-08-17T02:20:16;20.70;99.90
10802;DHT22;5453;50.852;7.102;2023-08-17T02:22:51;20.60;99.90
10802;DHT22;5453;50.852;7.102;2023-08-17T02:25:24;20.70;99.90
10802;DHT22;5453;50.852;7.102;2023-08-17T02:27:57;20.60;99.90
10802;DHT22;5453;50.852;7.102;2023-08-17T02:30:30;20.60;99.90
10802;DHT22;5453;50.852;7.102;2023-08-17T02:33:03;20.60;99.90
10802;DHT22;5453;50.852;7.102;2023-08-17T02:35:36;20.60;99.90
10802;DHT22;5453;50.852;7.102;2023-08-17T02:38:09;20.60;99.90
10802;DHT22;5453;50.852;7.102;2023-08-17T02:40:43;20.60;99.90
10802;DHT22;5453;50.852;7.102;2023-08-17T02:43:15;20.60;99.90
10802;DHT22;5453;50.852;7.102;2023-08-17T02:45:48;20.60;99.90
10802;DHT22;5453;50.852;7.102;2023-08-17T02:48:22;20.60;99.90
10802;DHT22;5453;50.852;7.102;2023-08-17T02:50:54;20.60;99.90
10802;DHT22;5453;50.852;7.102;2023-08-17T02:53:26;20.60;99.90
10802;DHT22;5453;50.852;7.102;2023-08-17T02:56:00;20.60;99.90
10802;DHT22;5453;50.852;7.102;2023-08-17T02:58:32;20.50;99.90
10802;DHT22;5453;50.852;7.102;2023-08-17T03:01:05;20.50;99.90
10802;DHT22;5453;50.852;7.102;2023-08-17T03:03:37;20.60;99.90
10802;DHT22;5453;50.852;7.102;2023-08-17T03:06:10;20.60;99.90
10802;DHT22;5453;50.852;7.102;2023-08-17T03:08:44;20.60;99.90
10802;DHT22;5453;50.852;7.102;2023-08-17T03:11:17;20.60;99.90
10802;DHT22;5453;50.852;7.102;2023-08-17T03:13:51;20.50;99.90
10802;DHT22;5453;50.852;7.102;2023-08-17T03:16:30;20.50;99.90
10802;DHT22;5453;50.852;7.102;2023-08-17T03:19:03;20.50;99.90
10802;DHT22;5453;50.852;7.102;2023-08-17T03:21:39;20.50;99.90
10802;DHT22;5453;50.852;7.102;2023-08-17T03:24:11;20.50;99.90
10802;DHT22;5453;50.852;7.102;2023-08-17T03:26:45;20.50;99.90
10802;DHT22;5453;50.852;7.102;2023-08-17T03:29:17;20.50;99.90
10802;DHT22;5453;50.852;7.102;2023-08-17T03:31:49;20.50;99.90
10802;DHT22;5453;50.852;7.102;2023-08-17T03:34:21;20.50;99.90
10802;DHT22;5453;50.852;7.102;2023-08-17T03:36:54;20.40;99.90
10802;DHT22;5453;50.852;7.102;2023-08-17T03:39:26;20.40;99.90
10802;DHT22;5453;50.852;7.102;2023-08-17T03:42:00;20.40;99.90
10802;DHT22;5453;50.852;7.102;2023-08-17T03:44:32;20.40;99.90
10802;DHT22;5453;50.852;7.102;2023-08-17T03:47:05;20.40;99.90
10802;DHT22;5453;50.852;7.102;2023-08-17T03:49:37;20.30;99.90
10802;DHT22;5453;50.852;7.102;2023-08-17T03:52:10;20.30;99.90
10802;DHT22;5453;50.852;7.102;2023-08-17T03:54:43;20.30;99.90
10802;DHT22;5453;50.852;7.102;2023-08-17T03:57:16;20.30;99.90
10802;DHT22;5453;50.852;7.102;2023-08-17T03:59:49;20.30;99.90
10802;DHT22;5453;50.852;7.102;2023-08-17T04:02:22;20.20;99.90
10802;DHT22;5453;50.852;7.102;2023-08-17T04:04:54;20.20;99.90
10802;DHT22;5453;50.852;7.102;2023-08-17T04:07:27;20.20;99.90
10802;DHT22;5453;50.852;7.102;2023-08-17T04:10:00;20.20;99.90
10802;DHT22;5453;50.852;7.102;2023-08-17T04:12:33;20.20;99.90
10802;DHT22;5453;50.852;7.102;2023-08-17T04:15:06;20.20;99.90
10802;DHT22;5453;50.852;7.102;2023-08-17T04:17:38;20.20;99.90
10802;DHT22;5453;50.852;7.102;2023-08-17T04:20:11;20.10;99.90
10802;DHT22;5453;50.852;7.102;2023-08-17T04:22:44;20.10;99.90
10802;DHT22;5453;50.852;7.102;2023-08-17T04:25:16;20.10;99.90
10802;DHT22;5453;50.852;7.102;2023-08-17T04:27:49;20.10;99.90
10802;DHT22;5453;50.852;7.102;2023-08-17T04:30:22;20.10;99.90
10802;DHT22;5453;50.852;7.102;2023-08-17T04:33:03;20.10;99.90
10802;DHT22;5453;50.852;7.102;2023-08-17T04:35:38;20.00;99.90
10802;DHT22;5453;50.852;7.102;2023-08-17T04:38:11;20.00;99.90
10802;DHT22;5453;50.852;7.102;2023-08-17T04:40:43;20.00;99.90
10802;DHT22;5453;50.852;7.102;2023-08-17T04:43:18;20.00;99.90
10802;DHT22;5453;50.852;7.102;2023-08-17T04:45:51;20.00;99.90
10802;DHT22;5453;50.852;7.102;2023-08-17T04:48:23;20.00;99.90
10802;DHT22;5453;50.852;7.102;2023-08-17T04:50:57;19.90;99.90
10802;DHT22;5453;50.852;7.102;2023-08-17T04:53:29;19.90;99.90
10802;DHT22;5453;50.852;7.102;2023-08-17T04:56:04;19.90;99.90
10802;DHT22;5453;50.852;7.102;2023-08-17T04:58:38;19.90;99.90
10802;DHT22;5453;50.852;7.102;2023-08-17T05:01:10;19.90;99.90
10802;DHT22;5453;50.852;7.102;2023-08-17T05:03:43;19.90;99.90
10802;DHT22;5453;50.852;7.102;2023-08-17T05:06:15;19.90;99.90
10802;DHT22;5453;50.852;7.102;2023-08-17T05:08:48;19.80;99.90
10802;DHT22;5453;50.852;7.102;2023-08-17T05:11:20;19.80;99.90
10802;DHT22;5453;50.852;7.102;2023-08-17T05:13:57;19.80;99.90
10802;DHT22;5453;50.852;7.102;2023-08-17T05:16:30;19.80;99.90
10802;DHT22;5453;50.852;7.102;2023-08-17T05:19:02;19.80;99.90
10802;DHT22;5453;50.852;7.102;2023-08-17T05:21:35;19.80;99.90
10802;DHT22;5453;50.852;7.102;2023-08-17T05:24:07;19.80;99.90
10802;DHT22;5453;50.852;7.102;2023-08-17T05:26:40;19.80;99.90
10802;DHT22;5453;50.852;7.102;2023-08-17T05:29:14;19.80;99.90
10802;DHT22;5453;50.852;7.102;2023-08-17T05:31:46;19.80;99.90
10802;DHT22;5453;50.852;7.102;2023-08-17T05:34:19;19.70;99.90
10802;DHT22;5453;50.852;7.102;2023-08-17T05:36:51;19.80;99.90
10802;DHT22;5453;50.852;7.102;2023-08-17T05:39:24;19.80;99.90
10802;DHT22;5453;50.852;7.102;2023-08-17T05:41:56;19.70;99.90
10802;DHT22;5453;50.852;7.102;2023-08-17T05:44:30;19.70;99.90
10802;DHT22;5453;50.852;7.102;2023-08-17T05:47:02;19.80;99.90
10802;DHT22;5453;50.852;7.102;2023-08-17T05:49:35;19.70;99.90
10802;DHT22;5453;50.852;7.102;2023-08-17T05:52:08;19.70;99.90
10802;DHT22;5453;50.852;7.102;2023-08-17T05:54:40;19.70;99.90
10802;DHT22;5453;50.852;7.102;2023-08-17T05:57:13;19.70;99.90
10802;DHT22;5453;50.852;7.102;2023-08-17T05:59:47;19.80;99.90
10802;DHT22;5453;50.852;7.102;2023-08-17T06:02:19;19.80;99.90
10802;DHT22;5453;50.852;7.102;2023-08-17T06:04:51;19.70;99.90
10802;DHT22;5453;50.852;7.102;2023-08-17T06:07:23;19.70;99.90
10802;DHT22;5453;50.852;7.102;2023-08-17T06:09:55;19.70;99.90
10802;DHT22;5453;50.852;7.102;2023-08-17T06:12:28;19.90;99.90
10802;DHT22;5453;50.852;7.102;2023-08-17T06:15:01;20.20;99.90
10802;DHT22;5453;50.852;7.102;2023-08-17T06:17:34;20.40;99.90
10802;DHT22;5453;50.852;7.102;2023-08-17T06:20:08;20.60;99.90
10802;DHT22;5453;50.852;7.102;2023-08-17T06:22:41;20.80;99.90
10802;DHT22;5453;50.852;7.102;2023-08-17T06:25:13;20.90;99.90
10802;DHT22;5453;50.852;7.102;2023-08-17T06:27:48;21.00;99.90
10802;DHT22;5453;50.852;7.102;2023-08-17T06:30:22;21.10;99.90
10802;DHT22;5453;50.852;7.102;2023-08-17T06:32:54;21.10;99.90
10802;DHT22;5453;50.852;7.102;2023-08-17T06:35:26;21.20;99.90
10802;DHT22;5453;50.852;7.102;2023-08-17T06:37:58;21.20;99.90
10802;DHT22;5453;50.852;7.102;2023-08-17T06:40:31;21.20;99.90
10802;DHT22;5453;50.852;7.102;2023-08-17T06:43:03;21.30;99.90
10802;DHT22;5453;50.852;7.102;2023-08-17T06:45:37;21.30;99.90
10802;DHT22;5453;50.852;7.102;2023-08-17T06:48:09;21.30;99.90
10802;DHT22;5453;50.852;7.102;2023-08-17T06:50:41;21.40;99.90
10802;DHT22;5453;50.852;7.102;2023-08-17T06:53:13;21.30;99.90
10802;DHT22;5453;50.852;7.102;2023-08-17T06:55:46;21.40;99.90
10802;DHT22;5453;50.852;7.102;2023-08-17T06:58:18;21.40;99.90
10802;DHT22;5453;50.852;7.102;2023-08-17T07:00:52;21.50;99.90
10802;DHT22;5453;50.852;7.102;2023-08-17T07:03:24;21.50;99.90
10802;DHT22;5453;50.852;7.102;2023-08-17T07:05:56;21.50;99.90
10802;DHT22;5453;50.852;7.102;2023-08-17T07:08:29;21.50;99.90
10802;DHT22;5453;50.852;7.102;2023-08-17T07:11:01;21.60;99.90
10802;DHT22;5453;50.852;7.102;2023-08-17T07:13:34;21.60;99.90
10802;DHT22;5453;50.852;7.102;2023-08-17T07:16:08;21.70;99.90
10802;DHT22;5453;50.852;7.102;2023-08-17T07:18:40;21.70;99.90
10802;DHT22;5453;50.852;7.102;2023-08-17T07:21:12;21.70;99.90
10802;DHT22;5453;50.852;7.102;2023-08-17T07:23:45;21.60;99.90
10802;DHT22;5453;50.852;7.102;2023-08-17T07:26:17;21.60;99.90
10802;DHT22;5453;50.852;7.102;2023-08-17T07:28:51;21.60;99.90
10802;DHT22;5453;50.852;7.102;2023-08-17T07:31:24;21.60;99.90
10802;DHT22;5453;50.852;7.102;2023-08-17T07:33:56;21.60;99.90
10802;DHT22;5453;50.852;7.102;2023-08-17T07:36:28;21.60;99.90
10802;DHT22;5453;50.852;7.102;2023-08-17T07:39:00;21.60;99.90
10802;DHT22;5453;50.852;7.102;2023-08-17T07:41:33;21.70;99.90
10802;DHT22;5453;50.852;7.102;2023-08-17T07:44:05;21.70;99.90
10802;DHT22;5453;50.852;7.102;2023-08-17T07:46:38;21.60;99.90
10802;DHT22;5453;50.852;7.102;2023-08-17T07:49:11;21.60;99.90
10802;DHT22;5453;50.852;7.102;2023-08-17T07:51:43;21.60;99.90
10802;DHT22;5453;50.852;7.102;2023-08-17T07:54:15;21.50;99.90
10802;DHT22;5453;50.852;7.102;2023-08-17T07:56:47;21.50;99.90
10802;DHT22;5453;50.852;7.102;2023-08-17T07:59:19;21.40;99.90
10802;DHT22;5453;50.852;7.102;2023-08-17T08:01:53;21.30;99.90
10802;DHT22;5453;50.852;7.102;2023-08-17T08:04:25;21.30;99.90
10802;DHT22;5453;50.852;7.102;2023-08-17T08:06:58;21.30;99.90
10802;DHT22;5453;50.852;7.102;2023-08-17T08:09:30;21.30;99.90
10802;DHT22;5453;50.852;7.102;2023-08-17T08:12:02;21.40;99.90
10802;DHT22;5453;50.852;7.102;2023-08-17T08:14:36;21.40;99.90
10802;DHT22;5453;50.852;7.102;2023-08-17T08:17:09;21.40;99.90
10802;DHT22;5453;50.852;7.102;2023-08-17T08:19:41;21.30;99.90
10802;DHT22;5453;50.852;7.102;2023-08-17T08:22:13;21.30;99.90
10802;DHT22;5453;50.852;7.102;2023-08-17T08:24:45;21.20;99.90
10802;DHT22;5453;50.852;7.102;2023-08-17T08:27:18;21.20;99.90
10802;DHT22;5453;50.852;7.102;2023-08-17T08:29:51;21.20;99.90
10802;DHT22;5453;50.852;7.102;2023-08-17T08:32:25;21.20;99.90
10802;DHT22;5453;50.852;7.102;2023-08-17T08:34:58;21.10;99.90
10802;DHT22;5453;50.852;7.102;2023-08-17T08:37:30;21.10;99.90
10802;DHT22;5453;50.852;7.102;2023-08-17T08:40:02;21.20;99.90
10802;DHT22;5453;50.852;7.102;2023-08-17T08:42:37;21.30;99.90
10802;DHT22;5453;50.852;7.102;2023-08-17T08:45:09;21.30;99.90
10802;DHT22;5453;50.852;7.102;2023-08-17T08:47:44;21.50;99.90
10802;DHT22;5453;50.852;7.102;2023-08-17T08:50:19;21.50;99.90
10802;DHT22;5453;50.852;7.102;2023-08-17T08:52:58;21.50;99.90
10802;DHT22;5453;50.852;7.102;2023-08-17T08:55:34;21.50;99.90
10802;DHT22;5453;50.852;7.102;2023-08-17T08:58:09;21.60;99.90
10802;DHT22;5453;50.852;7.102;2023-08-17T09:00:41;21.70;99.90
10802;DHT22;5453;50.852;7.102;2023-08-17T09:03:16;21.80;99.90
10802;DHT22;5453;50.852;7.102;2023-08-17T09:05:51;22.00;99.90
10802;DHT22;5453;50.852;7.102;2023-08-17T09:08:27;22.10;99.90
10802;DHT22;5453;50.852;7.102;2023-08-17T09:11:01;22.20;99.90
10802;DHT22;5453;50.852;7.102;2023-08-17T09:13:33;22.30;99.90
10802;DHT22;5453;50.852;7.102;2023-08-17T09:16:05;22.40;99.90
10802;DHT22;5453;50.852;7.102;2023-08-17T09:18:39;22.60;99.90
10802;DHT22;5453;50.852;7.102;2023-08-17T09:21:20;22.60;99.90
10802;DHT22;5453;50.852;7.102;2023-08-17T09:23:54;22.70;99.90
10802;DHT22;5453;50.852;7.102;2023-08-17T09:26:30;22.70;99.90
10802;DHT22;5453;50.852;7.102;2023-08-17T09:29:16;22.70;99.90
10802;DHT22;5453;50.852;7.102;2023-08-17T09:31:49;22.70;99.90
10802;DHT22;5453;50.852;7.102;2023-08-17T09:34:23;22.80;99.90
10802;DHT22;5453;50.852;7.102;2023-08-17T09:36:55;22.80;99.90
10802;DHT22;5453;50.852;7.102;2023-08-17T09:39:27;22.80;99.90
10802;DHT22;5453;50.852;7.102;2023-08-17T09:41:59;22.80;99.90
10802;DHT22;5453;50.852;7.102;2023-08-17T09:44:33;22.80;99.90
10802;DHT22;5453;50.852;7.102;2023-08-17T09:47:06;22.90;99.90
10802;DHT22;5453;50.852;7.102;2023-08-17T09:49:40;22.90;99.90
10802;DHT22;5453;50.852;7.102;2023-08-17T09:52:12;22.90;99.90
10802;DHT22;5453;50.852;7.102;2023-08-17T09:54:45;22.90;99.90
10802;DHT22;5453;50.852;7.102;2023-08-17T09:57:19;22.90;99.90
10802;DHT22;5453;50.852;7.102;2023-08-17T09:59:52;22.80;99.90
10802;DHT22;5453;50.852;7.102;2023-08-17T10:02:25;22.80;99.90
10802;DHT22;5453;50.852;7.102;2023-08-17T10:05:00;22.70;99.90
10802;DHT22;5453;50.852;7.102;2023-08-17T10:07:36;22.70;99.90
10802;DHT22;5453;50.852;7.102;2023-08-17T10:10:11;22.60;99.90
10802;DHT22;5453;50.852;7.102;2023-08-17T10:12:50;22.60;99.90
10802;DHT22;5453;50.852;7.102;2023-08-17T10:15:30;22.60;99.90
10802;DHT22;5453;50.852;7.102;2023-08-17T10:18:13;22.60;99.90
10802;DHT22;5453;50.852;7.102;2023-08-17T10:20:58;22.50;99.90
10802;DHT22;5453;50.852;7.102;2023-08-17T10:23:35;22.50;99.90
10802;DHT22;5453;50.852;7.102;2023-08-17T10:26:07;22.50;99.90
10802;DHT22;5453;50.852;7.102;2023-08-17T10:28:39;22.60;99.90
10802;DHT22;5453;50.852;7.102;2023-08-17T10:31:12;22.60;99.90
10802;DHT22;5453;50.852;7.102;2023-08-17T10:33:46;22.70;99.90
10802;DHT22;5453;50.852;7.102;2023-08-17T10:36:20;22.60;99.90
10802;DHT22;5453;50.852;7.102;2023-08-17T10:39:20;22.60;99.90
10802;DHT22;5453;50.852;7.102;2023-08-17T10:41:53;22.60;99.90
10802;DHT22;5453;50.852;7.102;2023-08-17T10:44:39;22.60;99.90
10802;DHT22;5453;50.852;7.102;2023-08-17T10:47:22;22.60;99.90
10802;DHT22;5453;50.852;7.102;2023-08-17T10:49:56;22.70;99.90
10802;DHT22;5453;50.852;7.102;2023-08-17T10:52:32;22.70;99.90
10802;DHT22;5453;50.852;7.102;2023-08-17T10:55:06;22.60;99.90
10802;DHT22;5453;50.852;7.102;2023-08-17T10:57:41;22.70;99.90
10802;DHT22;5453;50.852;7.102;2023-08-17T11:00:15;22.80;99.90
10802;DHT22;5453;50.852;7.102;2023-08-17T11:02:56;23.00;99.90
10802;DHT22;5453;50.852;7.102;2023-08-17T11:05:37;23.10;99.90
10802;DHT22;5453;50.852;7.102;2023-08-17T11:08:21;23.20;99.90
10802;DHT22;5453;50.852;7.102;2023-08-17T11:10:58;23.20;99.90
10802;DHT22;5453;50.852;7.102;2023-08-17T11:13:34;23.40;99.90
10802;DHT22;5453;50.852;7.102;2023-08-17T11:16:08;23.50;99.90
10802;DHT22;5453;50.852;7.102;2023-08-17T11:18:41;23.50;99.90
10802;DHT22;5453;50.852;7.102;2023-08-17T11:21:15;23.60;99.90
10802;DHT22;5453;50.852;7.102;2023-08-17T11:23:49;23.60;99.90
10802;DHT22;5453;50.852;7.102;2023-08-17T11:26:21;23.70;99.90
10802;DHT22;5453;50.852;7.102;2023-08-17T11:28:53;23.80;99.90
10802;DHT22;5453;50.852;7.102;2023-08-17T11:31:25;23.80;99.90
10802;DHT22;5453;50.852;7.102;2023-08-17T11:34:00;23.90;99.90
10802;DHT22;5453;50.852;7.102;2023-08-17T11:36:33;24.00;99.90
10802;DHT22;5453;50.852;7.102;2023-08-17T11:39:06;24.10;99.90
10802;DHT22;5453;50.852;7.102;2023-08-17T11:41:38;24.10;99.90
10802;DHT22;5453;50.852;7.102;2023-08-17T11:44:11;24.20;99.90
10802;DHT22;5453;50.852;7.102;2023-08-17T11:46:45;24.20;99.90
10802;DHT22;5453;50.852;7.102;2023-08-17T11:49:17;24.20;99.90
10802;DHT22;5453;50.852;7.102;2023-08-17T11:51:50;24.20;99.90
10802;DHT22;5453;50.852;7.102;2023-08-17T11:54:24;24.20;99.90
10802;DHT22;5453;50.852;7.102;2023-08-17T11:56:56;24.20;99.90
10802;DHT22;5453;50.852;7.102;2023-08-17T11:59:29;24.20;99.90
10802;DHT22;5453;50.852;7.102;2023-08-17T12:02:04;24.30;99.90
10802;DHT22;5453;50.852;7.102;2023-08-17T12:04:36;24.30;99.90
10802;DHT22;5453;50.852;7.102;2023-08-17T12:07:08;24.50;99.90
10802;DHT22;5453;50.852;7.102;2023-08-17T12:09:41;24.60;99.90
10802;DHT22;5453;50.852;7.102;2023-08-17T12:12:17;24.70;99.90
10802;DHT22;5453;50.852;7.102;2023-08-17T12:14:49;24.70;99.90
10802;DHT22;5453;50.852;7.102;2023-08-17T12:17:22;24.60;99.90
10802;DHT22;5453;50.852;7.102;2023-08-17T12:19:54;24.50;99.90
10802;DHT22;5453;50.852;7.102;2023-08-17T12:22:27;24.60;99.90
10802;DHT22;5453;50.852;7.102;2023-08-17T12:25:02;24.50;99.90
10802;DHT22;5453;50.852;7.102;2023-08-17T12:27:35;24.50;99.90
10802;DHT22;5453;50.852;7.102;2023-08-17T12:30:13;24.40;99.90
10802;DHT22;5453;50.852;7.102;2023-08-17T12:32:46;24.40;99.90
10802;DHT22;5453;50.852;7.102;2023-08-17T12:35:18;24.40;99.90
10802;DHT22;5453;50.852;7.102;2023-08-17T12:37:52;24.40;99.90
10802;DHT22;5453;50.852;7.102;2023-08-17T12:40:26;24.30;99.90
10802;DHT22;5453;50.852;7.102;2023-08-17T12:42:58;24.30;99.90
10802;DHT22;5453;50.852;7.102;2023-08-17T12:45:30;24.30;99.90
10802;DHT22;5453;50.852;7.102;2023-08-17T12:48:02;24.40;99.90
10802;DHT22;5453;50.852;7.102;2023-08-17T12:50:35;24.30;99.90
10802;DHT22;5453;50.852;7.102;2023-08-17T12:53:07;24.30;99.90
10802;DHT22;5453;50.852;7.102;2023-08-17T12:55:41;24.40;99.90
10802;DHT22;5453;50.852;7.102;2023-08-17T12:58:13;24.40;99.90
10802;DHT22;5453;50.852;7.102;2023-08-17T13:00:46;24.50;99.90
10802;DHT22;5453;50.852;7.102;2023-08-17T13:03:20;24.50;99.90
10802;DHT22;5453;50.852;7.102;2023-08-17T13:05:53;24.50;99.90
10802;DHT22;5453;50.852;7.102;2023-08-17T13:08:25;24.60;99.90
10802;DHT22;5453;50.852;7.102;2023-08-17T13:11:00;24.60;99.90
10802;DHT22;5453;50.852;7.102;2023-08-17T13:13:32;24.80;99.90
10802;DHT22;5453;50.852;7.102;2023-08-17T13:16:04;24.90;99.90
10802;DHT22;5453;50.852;7.102;2023-08-17T13:18:36;24.90;99.90
10802;DHT22;5453;50.852;7.102;2023-08-17T13:21:09;24.90;99.90
10802;DHT22;5453;50.852;7.102;2023-08-17T13:23:46;25.00;99.90
10802;DHT22;5453;50.852;7.102;2023-08-17T13:26:20;25.00;99.90
10802;DHT22;5453;50.852;7.102;2023-08-17T13:28:54;25.10;99.90
10802;DHT22;5453;50.852;7.102;2023-08-17T13:31:26;25.10;99.90
10802;DHT22;5453;50.852;7.102;2023-08-17T13:33:58;25.10;99.90
10802;DHT22;5453;50.852;7.102;2023-08-17T13:36:30;25.10;99.90
10802;DHT22;5453;50.852;7.102;2023-08-17T13:39:03;25.10;99.90
10802;DHT22;5453;50.852;7.102;2023-08-17T13:41:38;25.00;99.90
10802;DHT22;5453;50.852;7.102;2023-08-17T13:44:12;24.90;99.90
10802;DHT22;5453;50.852;7.102;2023-08-17T13:46:44;24.90;99.90
10802;DHT22;5453;50.852;7.102;2023-08-17T13:49:16;24.80;99.90
10802;DHT22;5453;50.852;7.102;2023-08-17T13:51:49;24.90;99.90
10802;DHT22;5453;50.852;7.102;2023-08-17T13:54:21;24.90;99.90
10802;DHT22;5453;50.852;7.102;2023-08-17T13:56:54;25.00;99.90
10802;DHT22;5453;50.852;7.102;2023-08-17T13:59:27;25.20;99.90
10802;DHT22;5453;50.852;7.102;2023-08-17T14:02:00;25.40;99.90
10802;DHT22;5453;50.852;7.102;2023-08-17T14:04:34;25.50;99.90
10802;DHT22;5453;50.852;7.102;2023-08-17T14:07:06;25.80;99.90
10802;DHT22;5453;50.852;7.102;2023-08-17T14:09:38;25.90;99.90
10802;DHT22;5453;50.852;7.102;2023-08-17T14:12:13;26.00;99.90
10802;DHT22;5453;50.852;7.102;2023-08-17T14:14:47;26.10;99.90
10802;DHT22;5453;50.852;7.102;2023-08-17T14:17:20;26.20;99.90
10802;DHT22;5453;50.852;7.102;2023-08-17T14:19:53;26.20;99.90
10802;DHT22;5453;50.852;7.102;2023-08-17T14:22:27;26.10;99.90
10802;DHT22;5453;50.852;7.102;2023-08-17T14:24:59;26.10;99.90
10802;DHT22;5453;50.852;7.102;2023-08-17T14:27:33;26.00;99.90
10802;DHT22;5453;50.852;7.102;2023-08-17T14:30:06;26.00;99.90
10802;DHT22;5453;50.852;7.102;2023-08-17T14:32:39;26.00;99.90
10802;DHT22;5453;50.852;7.102;2023-08-17T14:35:11;26.00;99.90
10802;DHT22;5453;50.852;7.102;2023-08-17T14:37:43;25.90;99.90
10802;DHT22;5453;50.852;7.102;2023-08-17T14:40:15;25.90;99.90
10802;DHT22;5453;50.852;7.102;2023-08-17T14:42:49;25.90;99.90
10802;DHT22;5453;50.852;7.102;2023-08-17T14:45:21;25.80;99.90
10802;DHT22;5453;50.852;7.102;2023-08-17T14:47:54;25.80;99.90
10802;DHT22;5453;50.852;7.102;2023-08-17T14:50:28;25.90;99.90
10802;DHT22;5453;50.852;7.102;2023-08-17T14:53:00;25.80;99.90
10802;DHT22;5453;50.852;7.102;2023-08-17T14:55:34;25.80;99.90
10802;DHT22;5453;50.852;7.102;2023-08-17T14:58:07;25.70;99.90
10802;DHT22;5453;50.852;7.102;2023-08-17T15:00:39;25.70;99.90
10802;DHT22;5453;50.852;7.102;2023-08-17T15:03:13;25.60;99.90
10802;DHT22;5453;50.852;7.102;2023-08-17T15:05:45;25.60;99.90
10802;DHT22;5453;50.852;7.102;2023-08-17T15:08:17;25.60;99.90
10802;DHT22;5453;50.852;7.102;2023-08-17T15:10:50;25.60;99.90
10802;DHT22;5453;50.852;7.102;2023-08-17T15:13:25;25.50;99.90
10802;DHT22;5453;50.852;7.102;2023-08-17T15:15:57;25.60;99.90
10802;DHT22;5453;50.852;7.102;2023-08-17T15:18:29;25.50;99.90
10802;DHT22;5453;50.852;7.102;2023-08-17T15:21:02;25.50;99.90
10802;DHT22;5453;50.852;7.102;2023-08-17T15:23:36;25.50;99.90
10802;DHT22;5453;50.852;7.102;2023-08-17T15:26:08;25.50;99.90
10802;DHT22;5453;50.852;7.102;2023-08-17T15:28:42;25.50;99.90
10802;DHT22;5453;50.852;7.102;2023-08-17T15:31:15;25.40;99.90
10802;DHT22;5453;50.852;7.102;2023-08-17T15:33:47;25.30;99.90
10802;DHT22;5453;50.852;7.102;2023-08-17T15:36:19;25.30;99.90
10802;DHT22;5453;50.852;7.102;2023-08-17T15:38:54;25.20;99.90
10802;DHT22;5453;50.852;7.102;2023-08-17T15:41:26;25.20;99.90
10802;DHT22;5453;50.852;7.102;2023-08-17T15:44:00;25.20;99.90
10802;DHT22;5453;50.852;7.102;2023-08-17T15:46:32;25.30;99.90
10802;DHT22;5453;50.852;7.102;2023-08-17T15:49:04;25.20;99.90
10802;DHT22;5453;50.852;7.102;2023-08-17T15:51:37;25.20;99.90
10802;DHT22;5453;50.852;7.102;2023-08-17T15:54:10;25.20;99.90
10802;DHT22;5453;50.852;7.102;2023-08-17T15:56:43;25.30;99.90
10802;DHT22;5453;50.852;7.102;2023-08-17T15:59:17;25.30;99.90
10802;DHT22;5453;50.852;7.102;2023-08-17T16:01:50;25.40;99.90
10802;DHT22;5453;50.852;7.102;2023-08-17T16:04:22;25.40;99.90
10802;DHT22;5453;50.852;7.102;2023-08-17T16:06:55;25.40;99.90
10802;DHT22;5453;50.852;7.102;2023-08-17T16:09:27;25.40;99.90
10802;DHT22;5453;50.852;7.102;2023-08-17T16:12:00;25.30;99.90
10802;DHT22;5453;50.852;7.102;2023-08-17T16:14:34;25.20;99.90
10802;DHT22;5453;50.852;7.102;2023-08-17T16:21:17;25.10;99.90
10802;DHT22;5453;50.852;7.102;2023-08-17T16:23:49;24.90;99.90
10802;DHT22;5453;50.852;7.102;2023-08-17T16:26:21;24.90;99.90
10802;DHT22;5453;50.852;7.102;2023-08-17T16:28:53;24.90;99.90